sensor_id;sensor_type;location;lat;lon;timestamp;P1;durP1;ratioP1;P2;durP2;ratioP2
23001;SDS011;11667;51.706;4.856;2023-04-24T00:01:32;26.93;;;11.60;;
23001;SDS011;11667;51.706;4.856;2023-04-24T00:04:03;24.97;;;12.87;;
23001;SDS011;11667;51.706;4.856;2023-04-24T00:06:35;27.10;;;13.60;;
23001;SDS011;11667;51.706;4.856;2023-04-24T00:09:06;32.25;;;14.23;;
23001;SDS011;11667;51.706;4.856;2023-04-24T00:11:37;33.42;;;14.45;;
23001;SDS011;11667;51.706;4.856;2023-04-24T00:14:07;35.58;;;15.13;;
23001;SDS011;11667;51.706;4.856;2023-04-24T00:16:36;34.33;;;15.32;;
23001;SDS011;11667;51.706;4.856;2023-04-24T00:19:06;32.60;;;15.65;;
23001;SDS011;11667;51.706;4.856;2023-04-24T00:21:36;36.55;;;16.27;;
23001;SDS011;11667;51.706;4.856;2023-04-24T00:24:05;35.08;;;15.83;;
23001;SDS011;11667;51.706;4.856;2023-04-24T00:26:36;37.10;;;16.48;;
23001;SDS011;11667;51.706;4.856;2023-04-24T00:29:06;36.68;;;17.27;;
23001;SDS011;11667;51.706;4.856;2023-04-24T00:31:35;37.98;;;16.65;;
23001;SDS011;11667;51.706;4.856;2023-04-24T00:34:04;37.90;;;17.12;;
23001;SDS011;11667;51.706;4.856;2023-04-24T00:36:35;36.15;;;16.95;;
23001;SDS011;11667;51.706;4.856;2023-04-24T00:39:05;35.73;;;16.40;;
23001;SDS011;11667;51.706;4.856;2023-04-24T00:41:36;32.03;;;15.55;;
23001;SDS011;11667;51.706;4.856;2023-04-24T00:44:06;33.98;;;15.60;;
23001;SDS011;11667;51.706;4.856;2023-04-24T00:46:35;30.70;;;15.23;;
23001;SDS011;11667;51.706;4.856;2023-04-24T00:49:05;33.42;;;15.18;;
23001;SDS011;11667;51.706;4.856;2023-04-24T00:51:34;34.65;;;15.85;;
23001;SDS011;11667;51.706;4.856;2023-04-24T00:54:04;32.73;;;16.55;;
23001;SDS011;11667;51.706;4.856;2023-04-24T00:56:33;34.65;;;15.38;;
23001;SDS011;11667;51.706;4.856;2023-04-24T00:59:03;34.63;;;16.57;;
23001;SDS011;11667;51.706;4.856;2023-04-24T01:01:32;32.23;;;15.25;;
23001;SDS011;11667;51.706;4.856;2023-04-24T01:04:02;33.20;;;16.25;;
23001;SDS011;11667;51.706;4.856;2023-04-24T01:06:32;29.07;;;14.93;;
23001;SDS011;11667;51.706;4.856;2023-04-24T01:09:02;24.72;;;13.68;;
23001;SDS011;11667;51.706;4.856;2023-04-24T01:11:31;22.67;;;12.65;;
23001;SDS011;11667;51.706;4.856;2023-04-24T01:14:01;23.42;;;12.45;;
23001;SDS011;11667;51.706;4.856;2023-04-24T01:16:30;23.95;;;13.20;;
23001;SDS011;11667;51.706;4.856;2023-04-24T01:19:00;24.10;;;13.25;;
23001;SDS011;11667;51.706;4.856;2023-04-24T01:21:30;27.95;;;13.68;;
23001;SDS011;11667;51.706;4.856;2023-04-24T01:23:59;26.52;;;13.95;;
23001;SDS011;11667;51.706;4.856;2023-04-24T01:26:29;26.68;;;13.48;;
23001;SDS011;11667;51.706;4.856;2023-04-24T01:28:58;23.85;;;13.18;;
23001;SDS011;11667;51.706;4.856;2023-04-24T01:31:28;23.73;;;13.58;;
23001;SDS011;11667;51.706;4.856;2023-04-24T01:33:58;25.57;;;13.48;;
23001;SDS011;11667;51.706;4.856;2023-04-24T01:36:27;26.02;;;13.98;;
23001;SDS011;11667;51.706;4.856;2023-04-24T01:38:58;24.37;;;12.88;;
23001;SDS011;11667;51.706;4.856;2023-04-24T01:41:28;25.72;;;14.03;;
23001;SDS011;11667;51.706;4.856;2023-04-24T01:43:58;25.82;;;14.00;;
23001;SDS011;11667;51.706;4.856;2023-04-24T01:46:27;30.17;;;15.90;;
23001;SDS011;11667;51.706;4.856;2023-04-24T01:48:58;35.43;;;17.82;;
23001;SDS011;11667;51.706;4.856;2023-04-24T01:51:28;36.85;;;18.87;;
23001;SDS011;11667;51.706;4.856;2023-04-24T01:53:58;41.73;;;21.33;;
23001;SDS011;11667;51.706;4.856;2023-04-24T01:56:31;46.50;;;22.73;;
23001;SDS011;11667;51.706;4.856;2023-04-24T01:59:05;49.98;;;21.97;;
23001;SDS011;11667;51.706;4.856;2023-04-24T02:01:35;47.55;;;22.62;;
23001;SDS011;11667;51.706;4.856;2023-04-24T02:04:05;47.75;;;23.27;;
23001;SDS011;11667;51.706;4.856;2023-04-24T02:06:36;46.50;;;21.95;;
23001;SDS011;11667;51.706;4.856;2023-04-24T02:09:06;41.95;;;20.25;;
23001;SDS011;11667;51.706;4.856;2023-04-24T02:11:36;41.35;;;19.40;;
23001;SDS011;11667;51.706;4.856;2023-04-24T02:14:05;41.53;;;17.75;;
23001;SDS011;11667;51.706;4.856;2023-04-24T02:16:35;37.67;;;17.62;;
23001;SDS011;11667;51.706;4.856;2023-04-24T02:19:04;39.45;;;18.60;;
23001;SDS011;11667;51.706;4.856;2023-04-24T02:21:34;39.58;;;17.87;;
23001;SDS011;11667;51.706;4.856;2023-04-24T02:24:03;40.78;;;18.48;;
23001;SDS011;11667;51.706;4.856;2023-04-24T02:26:32;38.42;;;18.30;;
23001;SDS011;11667;51.706;4.856;2023-04-24T02:29:02;38.67;;;17.60;;
23001;SDS011;11667;51.706;4.856;2023-04-24T02:31:31;37.10;;;17.90;;
23001;SDS011;11667;51.706;4.856;2023-04-24T02:34:01;40.05;;;18.57;;
23001;SDS011;11667;51.706;4.856;2023-04-24T02:36:30;37.48;;;18.50;;
23001;SDS011;11667;51.706;4.856;2023-04-24T02:39:00;39.20;;;18.67;;
23001;SDS011;11667;51.706;4.856;2023-04-24T02:41:31;38.87;;;19.63;;
23001;SDS011;11667;51.706;4.856;2023-04-24T02:44:01;39.38;;;18.50;;
23001;SDS011;11667;51.706;4.856;2023-04-24T02:46:30;39.13;;;19.20;;
23001;SDS011;11667;51.706;4.856;2023-04-24T02:49:00;40.33;;;17.92;;
23001;SDS011;11667;51.706;4.856;2023-04-24T02:51:30;38.17;;;17.85;;
23001;SDS011;11667;51.706;4.856;2023-04-24T02:53:59;35.30;;;15.95;;
23001;SDS011;11667;51.706;4.856;2023-04-24T02:56:29;34.08;;;14.28;;
23001;SDS011;11667;51.706;4.856;2023-04-24T02:58:59;28.10;;;13.45;;
23001;SDS011;11667;51.706;4.856;2023-04-24T03:01:29;29.77;;;14.05;;
23001;SDS011;11667;51.706;4.856;2023-04-24T03:03:58;24.52;;;11.50;;
23001;SDS011;11667;51.706;4.856;2023-04-24T03:06:28;27.22;;;11.68;;
23001;SDS011;11667;51.706;4.856;2023-04-24T03:08:59;24.23;;;11.45;;
23001;SDS011;11667;51.706;4.856;2023-04-24T03:11:29;26.02;;;11.63;;
23001;SDS011;11667;51.706;4.856;2023-04-24T03:13:59;28.57;;;12.98;;
23001;SDS011;11667;51.706;4.856;2023-04-24T03:16:28;25.27;;;12.95;;
23001;SDS011;11667;51.706;4.856;2023-04-24T03:18:57;30.68;;;12.88;;
23001;SDS011;11667;51.706;4.856;2023-04-24T03:21:28;29.57;;;13.15;;
23001;SDS011;11667;51.706;4.856;2023-04-24T03:23:58;27.87;;;13.43;;
23001;SDS011;11667;51.706;4.856;2023-04-24T03:26:28;23.85;;;12.10;;
23001;SDS011;11667;51.706;4.856;2023-04-24T03:28:59;21.93;;;11.88;;
23001;SDS011;11667;51.706;4.856;2023-04-24T03:31:28;21.15;;;11.33;;
23001;SDS011;11667;51.706;4.856;2023-04-24T03:33:58;22.02;;;11.57;;
23001;SDS011;11667;51.706;4.856;2023-04-24T03:36:28;23.22;;;11.28;;
23001;SDS011;11667;51.706;4.856;2023-04-24T03:38:58;20.82;;;10.58;;
23001;SDS011;11667;51.706;4.856;2023-04-24T03:41:29;20.20;;;10.80;;
23001;SDS011;11667;51.706;4.856;2023-04-24T03:44:03;26.85;;;10.68;;
23001;SDS011;11667;51.706;4.856;2023-04-24T03:46:33;15.88;;;9.00;;
23001;SDS011;11667;51.706;4.856;2023-04-24T03:49:03;19.90;;;8.88;;
23001;SDS011;11667;51.706;4.856;2023-04-24T03:51:34;13.90;;;8.20;;
23001;SDS011;11667;51.706;4.856;2023-04-24T03:54:06;13.18;;;6.90;;
23001;SDS011;11667;51.706;4.856;2023-04-24T03:56:37;14.47;;;6.75;;
23001;SDS011;11667;51.706;4.856;2023-04-24T03:59:06;11.25;;;5.78;;
23001;SDS011;11667;51.706;4.856;2023-04-24T04:01:36;8.50;;;4.80;;
23001;SDS011;11667;51.706;4.856;2023-04-24T04:04:13;8.05;;;5.15;;
23001;SDS011;11667;51.706;4.856;2023-04-24T04:06:44;11.48;;;4.67;;
23001;SDS011;11667;51.706;4.856;2023-04-24T04:09:14;7.05;;;3.70;;
23001;SDS011;11667;51.706;4.856;2023-04-24T04:11:45;6.25;;;3.40;;
23001;SDS011;11667;51.706;4.856;2023-04-24T04:14:14;5.67;;;3.08;;
23001;SDS011;11667;51.706;4.856;2023-04-24T04:16:45;6.53;;;3.20;;
23001;SDS011;11667;51.706;4.856;2023-04-24T04:19:15;6.10;;;3.40;;
23001;SDS011;11667;51.706;4.856;2023-04-24T04:21:45;8.58;;;3.67;;
23001;SDS011;11667;51.706;4.856;2023-04-24T04:24:20;8.68;;;3.47;;
23001;SDS011;11667;51.706;4.856;2023-04-24T04:26:50;6.65;;;3.30;;
23001;SDS011;11667;51.706;4.856;2023-04-24T04:29:23;7.05;;;4.20;;
23001;SDS011;11667;51.706;4.856;2023-04-24T04:31:53;8.83;;;4.47;;
23001;SDS011;11667;51.706;4.856;2023-04-24T04:34:23;10.53;;;5.00;;
23001;SDS011;11667;51.706;4.856;2023-04-24T04:36:52;9.20;;;5.70;;
23001;SDS011;11667;51.706;4.856;2023-04-24T04:39:29;12.93;;;6.47;;
23001;SDS011;11667;51.706;4.856;2023-04-24T04:42:00;10.98;;;6.60;;
23001;SDS011;11667;51.706;4.856;2023-04-24T04:44:31;11.85;;;6.70;;
23001;SDS011;11667;51.706;4.856;2023-04-24T04:47:03;17.92;;;7.92;;
23001;SDS011;11667;51.706;4.856;2023-04-24T04:49:35;13.50;;;7.58;;
23001;SDS011;11667;51.706;4.856;2023-04-24T04:52:06;16.93;;;8.23;;
23001;SDS011;11667;51.706;4.856;2023-04-24T04:54:36;15.25;;;8.10;;
23001;SDS011;11667;51.706;4.856;2023-04-24T04:57:05;16.85;;;9.63;;
23001;SDS011;11667;51.706;4.856;2023-04-24T04:59:35;15.50;;;9.18;;
23001;SDS011;11667;51.706;4.856;2023-04-24T05:02:06;15.53;;;10.32;;
23001;SDS011;11667;51.706;4.856;2023-04-24T05:04:36;17.90;;;11.40;;
23001;SDS011;11667;51.706;4.856;2023-04-24T05:07:06;20.62;;;12.30;;
23001;SDS011;11667;51.706;4.856;2023-04-24T05:09:37;18.42;;;12.03;;
23001;SDS011;11667;51.706;4.856;2023-04-24T05:12:06;23.02;;;12.37;;
23001;SDS011;11667;51.706;4.856;2023-04-24T05:14:37;16.05;;;8.68;;
23001;SDS011;11667;51.706;4.856;2023-04-24T05:17:07;14.00;;;7.95;;
23001;SDS011;11667;51.706;4.856;2023-04-24T05:19:36;14.05;;;6.72;;
23001;SDS011;11667;51.706;4.856;2023-04-24T05:22:06;12.98;;;6.70;;
23001;SDS011;11667;51.706;4.856;2023-04-24T05:24:38;11.03;;;5.65;;
23001;SDS011;11667;51.706;4.856;2023-04-24T05:27:13;9.50;;;5.78;;
23001;SDS011;11667;51.706;4.856;2023-04-24T05:29:42;12.20;;;5.85;;
23001;SDS011;11667;51.706;4.856;2023-04-24T05:32:13;11.50;;;5.47;;
23001;SDS011;11667;51.706;4.856;2023-04-24T05:34:42;10.28;;;6.00;;
23001;SDS011;11667;51.706;4.856;2023-04-24T05:37:11;10.03;;;6.62;;
23001;SDS011;11667;51.706;4.856;2023-04-24T05:39:41;14.60;;;6.35;;
23001;SDS011;11667;51.706;4.856;2023-04-24T05:42:11;15.68;;;6.58;;
23001;SDS011;11667;51.706;4.856;2023-04-24T05:44:40;14.85;;;6.67;;
23001;SDS011;11667;51.706;4.856;2023-04-24T05:47:10;14.55;;;7.08;;
23001;SDS011;11667;51.706;4.856;2023-04-24T05:49:39;14.93;;;7.03;;
23001;SDS011;11667;51.706;4.856;2023-04-24T05:52:09;16.37;;;8.53;;
23001;SDS011;11667;51.706;4.856;2023-04-24T05:54:39;17.50;;;8.45;;
23001;SDS011;11667;51.706;4.856;2023-04-24T05:57:10;18.25;;;9.33;;
23001;SDS011;11667;51.706;4.856;2023-04-24T05:59:50;26.57;;;11.43;;
23001;SDS011;11667;51.706;4.856;2023-04-24T06:02:20;28.83;;;12.50;;
23001;SDS011;11667;51.706;4.856;2023-04-24T06:04:51;31.52;;;12.78;;
23001;SDS011;11667;51.706;4.856;2023-04-24T06:07:21;33.95;;;13.15;;
23001;SDS011;11667;51.706;4.856;2023-04-24T06:09:54;39.18;;;14.23;;
23001;SDS011;11667;51.706;4.856;2023-04-24T06:12:25;30.65;;;14.73;;
23001;SDS011;11667;51.706;4.856;2023-04-24T06:17:33;33.02;;;15.03;;
23001;SDS011;11667;51.706;4.856;2023-04-24T06:20:03;35.83;;;15.32;;
23001;SDS011;11667;51.706;4.856;2023-04-24T06:22:33;37.08;;;14.85;;
23001;SDS011;11667;51.706;4.856;2023-04-24T06:25:03;31.37;;;15.00;;
23001;SDS011;11667;51.706;4.856;2023-04-24T06:27:33;35.33;;;16.45;;
23001;SDS011;11667;51.706;4.856;2023-04-24T06:30:03;34.10;;;15.23;;
23001;SDS011;11667;51.706;4.856;2023-04-24T06:32:33;38.17;;;15.98;;
23001;SDS011;11667;51.706;4.856;2023-04-24T06:35:02;34.33;;;14.95;;
23001;SDS011;11667;51.706;4.856;2023-04-24T06:37:32;35.23;;;14.83;;
23001;SDS011;11667;51.706;4.856;2023-04-24T06:40:01;31.87;;;14.83;;
23001;SDS011;11667;51.706;4.856;2023-04-24T06:42:33;32.90;;;13.75;;
23001;SDS011;11667;51.706;4.856;2023-04-24T06:45:03;35.23;;;14.43;;
23001;SDS011;11667;51.706;4.856;2023-04-24T06:47:33;36.85;;;14.45;;
23001;SDS011;11667;51.706;4.856;2023-04-24T06:50:02;32.17;;;12.20;;
23001;SDS011;11667;51.706;4.856;2023-04-24T06:52:31;32.40;;;10.40;;
23001;SDS011;11667;51.706;4.856;2023-04-24T06:55:01;27.22;;;10.10;;
23001;SDS011;11667;51.706;4.856;2023-04-24T06:57:31;32.63;;;10.50;;
23001;SDS011;11667;51.706;4.856;2023-04-24T07:00:01;31.20;;;9.13;;
23001;SDS011;11667;51.706;4.856;2023-04-24T07:02:30;32.75;;;8.93;;
23001;SDS011;11667;51.706;4.856;2023-04-24T07:05:00;29.98;;;9.43;;
23001;SDS011;11667;51.706;4.856;2023-04-24T07:07:30;27.37;;;9.23;;
23001;SDS011;11667;51.706;4.856;2023-04-24T07:10:00;42.53;;;10.35;;
23001;SDS011;11667;51.706;4.856;2023-04-24T07:12:31;25.30;;;9.03;;
23001;SDS011;11667;51.706;4.856;2023-04-24T07:15:01;29.32;;;9.15;;
23001;SDS011;11667;51.706;4.856;2023-04-24T07:17:30;29.27;;;8.78;;
23001;SDS011;11667;51.706;4.856;2023-04-24T07:20:00;28.75;;;9.20;;
23001;SDS011;11667;51.706;4.856;2023-04-24T07:22:30;28.05;;;9.25;;
23001;SDS011;11667;51.706;4.856;2023-04-24T07:24:59;30.27;;;9.10;;
23001;SDS011;11667;51.706;4.856;2023-04-24T07:27:29;25.68;;;8.53;;
23001;SDS011;11667;51.706;4.856;2023-04-24T07:29:59;30.90;;;8.15;;
23001;SDS011;11667;51.706;4.856;2023-04-24T07:32:28;24.82;;;7.85;;
23001;SDS011;11667;51.706;4.856;2023-04-24T07:34:59;32.48;;;8.33;;
23001;SDS011;11667;51.706;4.856;2023-04-24T07:37:28;27.32;;;7.67;;
23001;SDS011;11667;51.706;4.856;2023-04-24T07:39:58;25.23;;;7.20;;
23001;SDS011;11667;51.706;4.856;2023-04-24T07:42:27;27.32;;;7.22;;
23001;SDS011;11667;51.706;4.856;2023-04-24T07:44:58;24.70;;;6.55;;
23001;SDS011;11667;51.706;4.856;2023-04-24T07:47:27;27.55;;;6.40;;
23001;SDS011;11667;51.706;4.856;2023-04-24T07:49:57;31.02;;;5.78;;
23001;SDS011;11667;51.706;4.856;2023-04-24T07:52:27;22.22;;;5.92;;
23001;SDS011;11667;51.706;4.856;2023-04-24T07:54:56;24.25;;;5.30;;
23001;SDS011;11667;51.706;4.856;2023-04-24T07:57:26;26.60;;;4.60;;
23001;SDS011;11667;51.706;4.856;2023-04-24T07:59:55;18.05;;;4.80;;
23001;SDS011;11667;51.706;4.856;2023-04-24T08:02:24;19.50;;;4.67;;
23001;SDS011;11667;51.706;4.856;2023-04-24T08:04:54;24.05;;;4.20;;
23001;SDS011;11667;51.706;4.856;2023-04-24T08:07:26;19.30;;;4.25;;
23001;SDS011;11667;51.706;4.856;2023-04-24T08:09:56;14.35;;;4.00;;
23001;SDS011;11667;51.706;4.856;2023-04-24T08:12:28;16.93;;;4.17;;
23001;SDS011;11667;51.706;4.856;2023-04-24T08:14:58;13.38;;;3.60;;
23001;SDS011;11667;51.706;4.856;2023-04-24T08:17:28;18.80;;;3.62;;
23001;SDS011;11667;51.706;4.856;2023-04-24T08:19:58;15.28;;;3.90;;
23001;SDS011;11667;51.706;4.856;2023-04-24T08:22:29;18.57;;;3.80;;
23001;SDS011;11667;51.706;4.856;2023-04-24T08:24:59;17.87;;;3.62;;
23001;SDS011;11667;51.706;4.856;2023-04-24T08:27:29;13.80;;;3.52;;
23001;SDS011;11667;51.706;4.856;2023-04-24T08:29:59;12.35;;;3.60;;
23001;SDS011;11667;51.706;4.856;2023-04-24T08:32:28;12.05;;;3.52;;
23001;SDS011;11667;51.706;4.856;2023-04-24T08:34:59;12.20;;;3.40;;
23001;SDS011;11667;51.706;4.856;2023-04-24T08:37:28;13.43;;;3.27;;
23001;SDS011;11667;51.706;4.856;2023-04-24T08:39:58;14.98;;;3.27;;
23001;SDS011;11667;51.706;4.856;2023-04-24T08:42:28;13.75;;;3.50;;
23001;SDS011;11667;51.706;4.856;2023-04-24T08:44:59;17.42;;;3.52;;
23001;SDS011;11667;51.706;4.856;2023-04-24T08:47:30;15.15;;;3.45;;
23001;SDS011;11667;51.706;4.856;2023-04-24T08:50:00;17.77;;;3.92;;
23001;SDS011;11667;51.706;4.856;2023-04-24T08:52:33;15.98;;;3.67;;
23001;SDS011;11667;51.706;4.856;2023-04-24T08:55:03;15.95;;;3.42;;
23001;SDS011;11667;51.706;4.856;2023-04-24T08:57:33;15.58;;;3.35;;
23001;SDS011;11667;51.706;4.856;2023-04-24T09:00:04;12.28;;;3.83;;
23001;SDS011;11667;51.706;4.856;2023-04-24T09:02:35;14.53;;;2.80;;
23001;SDS011;11667;51.706;4.856;2023-04-24T09:05:06;13.80;;;3.22;;
23001;SDS011;11667;51.706;4.856;2023-04-24T09:07:36;15.93;;;2.70;;
23001;SDS011;11667;51.706;4.856;2023-04-24T09:10:08;8.68;;;2.92;;
23001;SDS011;11667;51.706;4.856;2023-04-24T09:12:38;13.72;;;2.85;;
23001;SDS011;11667;51.706;4.856;2023-04-24T09:15:08;8.98;;;2.55;;
23001;SDS011;11667;51.706;4.856;2023-04-24T09:17:38;8.43;;;2.50;;
23001;SDS011;11667;51.706;4.856;2023-04-24T09:20:07;9.65;;;2.52;;
23001;SDS011;11667;51.706;4.856;2023-04-24T09:22:38;12.45;;;3.58;;
23001;SDS011;11667;51.706;4.856;2023-04-24T09:25:08;6.65;;;2.20;;
23001;SDS011;11667;51.706;4.856;2023-04-24T09:30:14;9.80;;;2.20;;
23001;SDS011;11667;51.706;4.856;2023-04-24T09:32:43;8.58;;;2.10;;
23001;SDS011;11667;51.706;4.856;2023-04-24T09:35:13;7.85;;;1.90;;
23001;SDS011;11667;51.706;4.856;2023-04-24T09:37:44;10.08;;;2.05;;
23001;SDS011;11667;51.706;4.856;2023-04-24T09:40:15;4.50;;;1.80;;
23001;SDS011;11667;51.706;4.856;2023-04-24T09:42:46;10.70;;;2.40;;
23001;SDS011;11667;51.706;4.856;2023-04-24T09:45:43;4.03;;;1.65;;
23001;SDS011;11667;51.706;4.856;2023-04-24T09:47:59;3.85;;;1.40;;
23001;SDS011;11667;51.706;4.856;2023-04-24T09:50:29;2.80;;;1.32;;
23001;SDS011;11667;51.706;4.856;2023-04-24T09:53:03;6.45;;;1.70;;
23001;SDS011;11667;51.706;4.856;2023-04-24T09:55:39;4.28;;;1.32;;
23001;SDS011;11667;51.706;4.856;2023-04-24T09:58:10;6.28;;;1.50;;
23001;SDS011;11667;51.706;4.856;2023-04-24T10:00:40;5.62;;;1.35;;
23001;SDS011;11667;51.706;4.856;2023-04-24T10:03:09;7.10;;;1.45;;
23001;SDS011;11667;51.706;4.856;2023-04-24T10:05:39;5.60;;;1.95;;
23001;SDS011;11667;51.706;4.856;2023-04-24T10:08:10;10.25;;;1.57;;
23001;SDS011;11667;51.706;4.856;2023-04-24T10:10:46;6.17;;;1.55;;
23001;SDS011;11667;51.706;4.856;2023-04-24T10:13:13;8.15;;;1.22;;
23001;SDS011;11667;51.706;4.856;2023-04-24T10:15:43;3.30;;;1.30;;
23001;SDS011;11667;51.706;4.856;2023-04-24T10:18:14;5.03;;;1.75;;
23001;SDS011;11667;51.706;4.856;2023-04-24T10:20:44;7.62;;;1.65;;
23001;SDS011;11667;51.706;4.856;2023-04-24T10:23:14;4.45;;;1.42;;
23001;SDS011;11667;51.706;4.856;2023-04-24T10:25:45;3.25;;;1.05;;
23001;SDS011;11667;51.706;4.856;2023-04-24T10:28:15;4.40;;;1.30;;
23001;SDS011;11667;51.706;4.856;2023-04-24T10:30:45;3.67;;;1.10;;
23001;SDS011;11667;51.706;4.856;2023-04-24T10:33:14;1.57;;;0.90;;
23001;SDS011;11667;51.706;4.856;2023-04-24T10:35:45;3.50;;;1.10;;
23001;SDS011;11667;51.706;4.856;2023-04-24T10:38:18;2.35;;;1.10;;
23001;SDS011;11667;51.706;4.856;2023-04-24T10:40:51;3.15;;;1.00;;
23001;SDS011;11667;51.706;4.856;2023-04-24T10:43:26;2.90;;;1.30;;
23001;SDS011;11667;51.706;4.856;2023-04-24T10:49:06;6.08;;;1.10;;
23001;SDS011;11667;51.706;4.856;2023-04-24T10:51:44;6.72;;;1.25;;
23001;SDS011;11667;51.706;4.856;2023-04-24T10:54:34;4.22;;;1.10;;
23001;SDS011;11667;51.706;4.856;2023-04-24T11:00:09;4.30;;;1.05;;
23001;SDS011;11667;51.706;4.856;2023-04-24T11:02:35;4.87;;;1.10;;
23001;SDS011;11667;51.706;4.856;2023-04-24T11:04:57;6.20;;;1.12;;
23001;SDS011;11667;51.706;4.856;2023-04-24T11:07:57;8.05;;;1.52;;
23001;SDS011;11667;51.706;4.856;2023-04-24T11:10:26;7.25;;;1.40;;
23001;SDS011;11667;51.706;4.856;2023-04-24T11:12:55;4.00;;;1.20;;
23001;SDS011;11667;51.706;4.856;2023-04-24T11:15:25;6.47;;;1.50;;
23001;SDS011;11667;51.706;4.856;2023-04-24T11:17:55;5.62;;;1.12;;
23001;SDS011;11667;51.706;4.856;2023-04-24T11:20:25;8.20;;;1.05;;
23001;SDS011;11667;51.706;4.856;2023-04-24T11:22:55;6.37;;;1.40;;
23001;SDS011;11667;51.706;4.856;2023-04-24T11:25:30;3.85;;;1.00;;
23001;SDS011;11667;51.706;4.856;2023-04-24T11:28:05;3.22;;;0.93;;
23001;SDS011;11667;51.706;4.856;2023-04-24T11:30:35;4.28;;;1.05;;
23001;SDS011;11667;51.706;4.856;2023-04-24T11:33:06;6.78;;;1.10;;
23001;SDS011;11667;51.706;4.856;2023-04-24T11:35:36;7.65;;;1.30;;
23001;SDS011;11667;51.706;4.856;2023-04-24T11:38:31;5.50;;;1.27;;
23001;SDS011;11667;51.706;4.856;2023-04-24T11:41:01;5.25;;;1.10;;
23001;SDS011;11667;51.706;4.856;2023-04-24T11:43:32;8.63;;;1.20;;
23001;SDS011;11667;51.706;4.856;2023-04-24T11:46:02;5.72;;;1.30;;
23001;SDS011;11667;51.706;4.856;2023-04-24T11:48:34;5.15;;;1.27;;
23001;SDS011;11667;51.706;4.856;2023-04-24T11:51:08;4.83;;;1.17;;
23001;SDS011;11667;51.706;4.856;2023-04-24T11:53:38;3.30;;;1.02;;
23001;SDS011;11667;51.706;4.856;2023-04-24T11:56:09;3.10;;;1.15;;
23001;SDS011;11667;51.706;4.856;2023-04-24T11:58:38;8.15;;;1.37;;
23001;SDS011;11667;51.706;4.856;2023-04-24T12:01:08;3.15;;;1.25;;
23001;SDS011;11667;51.706;4.856;2023-04-24T12:03:38;6.95;;;1.10;;
23001;SDS011;11667;51.706;4.856;2023-04-24T12:06:10;5.95;;;1.60;;
23001;SDS011;11667;51.706;4.856;2023-04-24T12:08:40;2.58;;;1.27;;
23001;SDS011;11667;51.706;4.856;2023-04-24T12:11:09;6.12;;;1.47;;
23001;SDS011;11667;51.706;4.856;2023-04-24T12:13:39;6.47;;;1.57;;
23001;SDS011;11667;51.706;4.856;2023-04-24T12:16:09;3.42;;;1.20;;
23001;SDS011;11667;51.706;4.856;2023-04-24T12:18:42;4.40;;;1.47;;
23001;SDS011;11667;51.706;4.856;2023-04-24T12:21:16;6.15;;;1.20;;
23001;SDS011;11667;51.706;4.856;2023-04-24T12:23:49;3.45;;;1.42;;
23001;SDS011;11667;51.706;4.856;2023-04-24T12:26:18;7.00;;;1.45;;
23001;SDS011;11667;51.706;4.856;2023-04-24T12:28:50;4.22;;;1.60;;
23001;SDS011;11667;51.706;4.856;2023-04-24T12:31:20;5.45;;;1.70;;
23001;SDS011;11667;51.706;4.856;2023-04-24T12:33:50;4.22;;;1.70;;
23001;SDS011;11667;51.706;4.856;2023-04-24T12:36:20;9.95;;;1.85;;
23001;SDS011;11667;51.706;4.856;2023-04-24T12:38:52;6.65;;;1.70;;
23001;SDS011;11667;51.706;4.856;2023-04-24T12:41:21;4.92;;;1.62;;
23001;SDS011;11667;51.706;4.856;2023-04-24T12:43:51;5.30;;;1.40;;
23001;SDS011;11667;51.706;4.856;2023-04-24T12:46:23;5.22;;;1.67;;
23001;SDS011;11667;51.706;4.856;2023-04-24T12:48:52;7.55;;;1.80;;
23001;SDS011;11667;51.706;4.856;2023-04-24T12:51:22;5.20;;;1.30;;
23001;SDS011;11667;51.706;4.856;2023-04-24T12:53:52;4.37;;;1.30;;
23001;SDS011;11667;51.706;4.856;2023-04-24T12:56:23;3.55;;;1.20;;
23001;SDS011;11667;51.706;4.856;2023-04-24T12:58:52;4.92;;;1.85;;
23001;SDS011;11667;51.706;4.856;2023-04-24T13:01:22;6.33;;;1.60;;
23001;SDS011;11667;51.706;4.856;2023-04-24T13:03:51;8.10;;;1.87;;
23001;SDS011;11667;51.706;4.856;2023-04-24T13:06:21;5.00;;;1.60;;
23001;SDS011;11667;51.706;4.856;2023-04-24T13:08:51;7.83;;;1.70;;
23001;SDS011;11667;51.706;4.856;2023-04-24T13:11:22;3.63;;;1.80;;
23001;SDS011;11667;51.706;4.856;2023-04-24T13:13:52;4.28;;;1.60;;
23001;SDS011;11667;51.706;4.856;2023-04-24T13:16:22;3.37;;;1.30;;
23001;SDS011;11667;51.706;4.856;2023-04-24T13:18:51;5.22;;;1.47;;
23001;SDS011;11667;51.706;4.856;2023-04-24T13:21:21;4.47;;;1.20;;
23001;SDS011;11667;51.706;4.856;2023-04-24T13:23:50;3.40;;;1.32;;
23001;SDS011;11667;51.706;4.856;2023-04-24T13:26:20;3.72;;;1.60;;
23001;SDS011;11667;51.706;4.856;2023-04-24T13:28:49;4.58;;;1.65;;
23001;SDS011;11667;51.706;4.856;2023-04-24T13:31:18;4.70;;;1.70;;
23001;SDS011;11667;51.706;4.856;2023-04-24T13:33:48;3.75;;;1.50;;
23001;SDS011;11667;51.706;4.856;2023-04-24T13:36:17;6.33;;;1.42;;
23001;SDS011;11667;51.706;4.856;2023-04-24T13:38:47;6.45;;;1.72;;
23001;SDS011;11667;51.706;4.856;2023-04-24T13:41:16;6.92;;;1.72;;
23001;SDS011;11667;51.706;4.856;2023-04-24T13:43:46;6.37;;;1.80;;
23001;SDS011;11667;51.706;4.856;2023-04-24T13:46:15;5.72;;;1.80;;
23001;SDS011;11667;51.706;4.856;2023-04-24T13:48:45;8.35;;;2.30;;
23001;SDS011;11667;51.706;4.856;2023-04-24T13:51:15;5.97;;;2.08;;
23001;SDS011;11667;51.706;4.856;2023-04-24T13:53:44;6.25;;;1.87;;
23001;SDS011;11667;51.706;4.856;2023-04-24T13:56:13;8.78;;;2.10;;
23001;SDS011;11667;51.706;4.856;2023-04-24T13:58:43;7.70;;;2.40;;
23001;SDS011;11667;51.706;4.856;2023-04-24T14:01:13;6.75;;;2.10;;
23001;SDS011;11667;51.706;4.856;2023-04-24T14:03:44;8.18;;;2.20;;
23001;SDS011;11667;51.706;4.856;2023-04-24T14:06:14;8.50;;;2.33;;
23001;SDS011;11667;51.706;4.856;2023-04-24T14:08:44;13.05;;;2.62;;
23001;SDS011;11667;51.706;4.856;2023-04-24T14:11:14;5.50;;;2.10;;
23001;SDS011;11667;51.706;4.856;2023-04-24T14:13:44;10.23;;;2.40;;
23001;SDS011;11667;51.706;4.856;2023-04-24T14:16:14;8.08;;;2.37;;
23001;SDS011;11667;51.706;4.856;2023-04-24T14:18:44;8.95;;;2.42;;
23001;SDS011;11667;51.706;4.856;2023-04-24T14:21:13;7.33;;;2.30;;
23001;SDS011;11667;51.706;4.856;2023-04-24T14:23:43;7.12;;;2.55;;
23001;SDS011;11667;51.706;4.856;2023-04-24T14:26:13;7.35;;;2.75;;
23001;SDS011;11667;51.706;4.856;2023-04-24T14:28:43;6.60;;;2.22;;
23001;SDS011;11667;51.706;4.856;2023-04-24T14:31:12;4.62;;;2.20;;
23001;SDS011;11667;51.706;4.856;2023-04-24T14:33:42;7.40;;;2.08;;
23001;SDS011;11667;51.706;4.856;2023-04-24T14:36:11;10.28;;;2.77;;
23001;SDS011;11667;51.706;4.856;2023-04-24T14:38:41;11.00;;;2.50;;
23001;SDS011;11667;51.706;4.856;2023-04-24T14:41:10;8.85;;;2.80;;
23001;SDS011;11667;51.706;4.856;2023-04-24T14:43:41;8.95;;;2.87;;
23001;SDS011;11667;51.706;4.856;2023-04-24T14:46:10;8.65;;;2.70;;
23001;SDS011;11667;51.706;4.856;2023-04-24T14:48:40;11.15;;;3.37;;
23001;SDS011;11667;51.706;4.856;2023-04-24T14:51:09;11.53;;;3.45;;
23001;SDS011;11667;51.706;4.856;2023-04-24T14:53:39;13.15;;;3.30;;
23001;SDS011;11667;51.706;4.856;2023-04-24T14:56:09;9.18;;;3.20;;
23001;SDS011;11667;51.706;4.856;2023-04-24T14:58:38;13.18;;;3.40;;
23001;SDS011;11667;51.706;4.856;2023-04-24T15:01:08;12.15;;;3.47;;
23001;SDS011;11667;51.706;4.856;2023-04-24T15:03:37;9.00;;;3.17;;
23001;SDS011;11667;51.706;4.856;2023-04-24T15:06:07;13.28;;;3.08;;